Alcoi, Spain
Current Conditions -  °F | °C
As of 6:30 AM on Saturday 20 Dec 2014 (Local Time) from LEAL Reporting Station
Broken Clouds Broken Clouds  
Wind Chill: 54°   Ceiling: 1000
Heat Index: 54°   Visibility: 6mi
Dew Point: 52°   Wind: 2mph
Humidity: 94%   Direction: NA
Pressure: 30.39"   Gusts: NA
Location:  38.7°N, 0.48°W
Report Text: LEAL 200530Z VRB02KT 9999 BKN010 12/11 Q1029 NOSIG
Loading
Personal Weather Stations






























Interactive Weather Map New forecast layout! Learn more

10-Day Weather Forecast

Advertisements
Track Severe Weather on mobile